Time;durP1;ratioP1;P1;durP2;ratioP2;P2;SDS_P1;SDS_P2;PMS_P1;PMS_P2;Temp;Humidity;BMP_temperature;BMP_pressure;BME280_temperature;BME280_humidity;BME280_pressure;Samples;Min_cycle;Max_cycle;Signal;HPM_P1;HPM_P2
2021/08/08 00:02:12;;;;;;;8.00;5.03;;;17.80;99.90;;;;;;5053349;28;20534;-79
2021/08/08 00:04:38;;;;;;;8.23;5.80;;;17.80;99.90;;;;;;4957058;28;20031;-78
2021/08/08 00:07:03;;;;;;;8.88;6.13;;;17.80;99.90;;;;;;4958146;28;20379;-78
2021/08/08 00:09:29;;;;;;;6.53;5.13;;;17.80;99.90;;;;;;5054528;28;20109;-78
2021/08/08 00:11:55;;;;;;;7.38;5.72;;;17.80;99.90;;;;;;4971006;28;20052;-78
2021/08/08 00:14:21;;;;;;;6.43;5.28;;;17.90;99.90;;;;;;4969998;28;20023;-78
2021/08/08 00:16:47;;;;;;;5.97;5.38;;;17.90;99.90;;;;;;5050697;28;20110;-78
2021/08/08 00:19:13;;;;;;;6.20;4.90;;;18.00;99.90;;;;;;4950736;29;20015;-78
2021/08/08 00:21:39;;;;;;;5.10;4.60;;;18.10;99.90;;;;;;4970071;28;20027;-78
2021/08/08 00:24:05;;;;;;;6.18;5.57;;;18.10;99.90;;;;;;5054753;28;20030;-78
2021/08/08 00:26:31;;;;;;;5.15;4.47;;;18.20;99.90;;;;;;5053972;28;20515;-78
2021/08/08 00:28:57;;;;;;;5.07;4.65;;;18.40;99.90;;;;;;5052355;28;20032;-78
2021/08/08 00:31:24;;;;;;;6.07;4.53;;;18.40;99.90;;;;;;5053962;28;20027;-78
2021/08/08 00:33:51;;;;;;;5.40;4.35;;;18.40;99.90;;;;;;4969786;28;20419;-78
2021/08/08 00:36:17;;;;;;;5.50;5.05;;;18.40;99.90;;;;;;4969708;28;20396;-78
2021/08/08 00:38:43;;;;;;;4.70;4.30;;;18.50;99.90;;;;;;4969188;28;20045;-78
2021/08/08 00:41:08;;;;;;;6.88;4.25;;;18.50;99.90;;;;;;4969580;28;20027;-78
2021/08/08 00:43:34;;;;;;;4.53;3.80;;;18.60;99.90;;;;;;4970493;28;20593;-78
2021/08/08 00:46:00;;;;;;;4.93;4.50;;;18.70;99.90;;;;;;4970938;28;20047;-78
2021/08/08 00:48:25;;;;;;;5.68;4.53;;;18.70;99.90;;;;;;4970290;28;20042;-78
2021/08/08 00:50:51;;;;;;;5.32;4.28;;;18.70;99.90;;;;;;4969547;28;20109;-78
2021/08/08 00:53:17;;;;;;;4.30;3.90;;;18.80;99.90;;;;;;4969002;28;20045;-79
2021/08/08 00:55:43;;;;;;;4.45;4.05;;;18.80;99.90;;;;;;4969686;28;20111;-78
2021/08/08 00:58:09;;;;;;;6.93;3.35;;;18.90;99.90;;;;;;4969906;28;20039;-78
2021/08/08 01:00:37;;;;;;;5.03;4.53;;;19.00;99.90;;;;;;4969479;28;20451;-78
2021/08/08 01:03:07;;;;;;;4.22;3.83;;;19.10;99.90;;;;;;4968977;28;20027;-79
2021/08/08 01:05:46;;;;;;;4.40;3.78;;;19.20;98.80;;;;;;5050849;28;20031;-78
2021/08/08 01:08:18;;;;;;;8.77;4.32;;;19.20;99.90;;;;;;4965014;28;20035;-78
2021/08/08 01:10:45;;;;;;;5.35;3.85;;;19.20;98.00;;;;;;4985485;28;20023;-78
2021/08/08 01:13:12;;;;;;;5.03;3.88;;;19.30;96.40;;;;;;4970070;28;20114;-78
2021/08/08 01:15:39;;;;;;;3.83;3.33;;;19.40;94.40;;;;;;4974153;28;20031;-78
2021/08/08 01:18:06;;;;;;;3.40;2.60;;;19.40;93.00;;;;;;4973245;28;20114;-78
2021/08/08 01:20:33;;;;;;;7.00;3.58;;;19.60;91.10;;;;;;5057542;28;20031;-79
2021/08/08 01:23:02;;;;;;;4.15;2.83;;;19.70;90.50;;;;;;5057068;28;20080;-78
2021/08/08 01:25:29;;;;;;;3.67;3.00;;;19.80;88.90;;;;;;5037507;28;20031;-79
2021/08/08 01:27:58;;;;;;;4.60;3.00;;;19.90;87.70;;;;;;5030627;28;20112;-79
2021/08/08 01:30:24;;;;;;;3.08;2.78;;;19.90;86.30;;;;;;5054473;28;20425;-78
2021/08/08 01:32:50;;;;;;;3.38;3.10;;;20.00;86.30;;;;;;5001194;28;20023;-78
2021/08/08 01:35:15;;;;;;;6.00;3.10;;;20.10;85.40;;;;;;4988556;28;20388;-78
2021/08/08 01:37:41;;;;;;;5.43;3.40;;;20.10;84.60;;;;;;4972983;28;20027;-78
2021/08/08 01:40:29;;;;;;;5.22;3.33;;;20.20;83.90;;;;;;5057441;28;20383;-78
2021/08/08 01:42:58;;;;;;;4.15;3.30;;;20.20;83.40;;;;;;4971571;28;20038;-77
2021/08/08 01:45:25;;;;;;;4.50;2.88;;;20.20;83.80;;;;;;4972109;28;20034;-78
2021/08/08 01:47:54;;;;;;;3.42;3.13;;;20.20;83.10;;;;;;4972591;28;20057;-78
2021/08/08 01:50:22;;;;;;;2.67;2.47;;;20.20;83.10;;;;;;5056910;28;20035;-78
2021/08/08 01:52:48;;;;;;;4.18;2.75;;;20.20;83.30;;;;;;4987739;28;20053;-78
2021/08/08 01:55:15;;;;;;;2.72;2.53;;;20.30;82.90;;;;;;5056887;28;20037;-77
2021/08/08 01:57:41;;;;;;;3.88;2.85;;;20.30;83.10;;;;;;4972991;28;20027;-78
2021/08/08 02:00:07;;;;;;;4.38;3.15;;;20.30;83.10;;;;;;4972101;28;20015;-77
2021/08/08 02:02:33;;;;;;;4.47;3.08;;;20.20;82.90;;;;;;4971504;28;20027;-77
2021/08/08 02:04:59;;;;;;;3.95;2.83;;;20.20;83.10;;;;;;4971803;28;20522;-77
2021/08/08 02:07:25;;;;;;;6.63;3.25;;;20.20;82.60;;;;;;5053065;28;20122;-77
2021/08/08 02:09:50;;;;;;;4.85;2.67;;;20.20;83.30;;;;;;4952501;28;20028;-78
2021/08/08 02:12:16;;;;;;;3.00;2.80;;;20.20;83.20;;;;;;4971767;28;20121;-78
2021/08/08 02:14:42;;;;;;;5.22;3.22;;;20.20;83.50;;;;;;4970685;28;20684;-78
2021/08/08 02:17:08;;;;;;;4.45;2.88;;;20.10;84.80;;;;;;4965926;28;20031;-79
2021/08/08 02:19:34;;;;;;;3.72;3.22;;;20.10;85.00;;;;;;4968428;28;20077;-79
2021/08/08 02:22:01;;;;;;;3.40;3.10;;;20.10;85.40;;;;;;4969688;28;20030;-79
2021/08/08 02:24:29;;;;;;;3.22;3.00;;;20.10;85.20;;;;;;4985336;28;20019;-79
2021/08/08 02:26:55;;;;;;;3.38;2.78;;;20.10;84.50;;;;;;4983824;28;20041;-79
2021/08/08 02:29:21;;;;;;;4.45;3.60;;;20.20;84.70;;;;;;5053759;28;20027;-80
2021/08/08 02:31:46;;;;;;;4.78;3.67;;;20.20;85.70;;;;;;4968224;28;20046;-78
2021/08/08 02:34:13;;;;;;;5.82;3.15;;;20.20;86.50;;;;;;4966449;28;20015;-78
2021/08/08 02:36:39;;;;;;;2.83;2.63;;;20.20;87.00;;;;;;4984852;28;20356;-78
2021/08/08 02:39:05;;;;;;;4.57;3.10;;;20.20;86.70;;;;;;4970335;28;20050;-79
2021/08/08 02:41:31;;;;;;;3.58;3.28;;;20.20;87.00;;;;;;4969456;28;20518;-79
2021/08/08 02:43:57;;;;;;;4.35;3.17;;;20.10;88.70;;;;;;4966819;28;20019;-78
2021/08/08 02:46:23;;;;;;;4.25;2.78;;;20.10;88.30;;;;;;4965444;28;20666;-78
2021/08/08 02:48:49;;;;;;;5.63;3.67;;;20.10;88.70;;;;;;4965923;28;20019;-78
2021/08/08 02:51:15;;;;;;;3.28;3.00;;;20.10;89.80;;;;;;4968304;28;20385;-78
2021/08/08 02:53:41;;;;;;;2.72;2.38;;;20.10;89.20;;;;;;4967354;28;20038;-78
2021/08/08 02:56:06;;;;;;;3.45;3.15;;;20.10;89.90;;;;;;4983336;28;20023;-79
2021/08/08 02:58:32;;;;;;;4.20;3.50;;;20.10;90.30;;;;;;4971110;28;20098;-78
2021/08/08 03:00:58;;;;;;;3.53;3.20;;;20.10;91.20;;;;;;4972450;28;20412;-79
2021/08/08 03:03:23;;;;;;;3.10;2.80;;;20.00;91.50;;;;;;5055574;28;20029;-78
2021/08/08 03:05:49;;;;;;;4.95;3.58;;;20.10;91.20;;;;;;4972162;28;20035;-78
2021/08/08 03:08:15;;;;;;;4.10;3.70;;;20.00;91.30;;;;;;4972147;28;20023;-78
2021/08/08 03:10:42;;;;;;;3.75;2.95;;;20.00;92.80;;;;;;4971133;28;20031;-78
2021/08/08 03:13:07;;;;;;;4.57;3.35;;;20.00;93.90;;;;;;4972415;28;20023;-78
2021/08/08 03:15:33;;;;;;;4.53;3.80;;;20.00;93.00;;;;;;4970970;28;20449;-78
2021/08/08 03:17:59;;;;;;;4.18;3.03;;;19.90;94.00;;;;;;5055436;28;20499;-79
2021/08/08 03:20:24;;;;;;;4.07;3.20;;;20.00;94.10;;;;;;5047498;28;20025;-79
2021/08/08 03:22:50;;;;;;;3.40;3.10;;;20.00;94.10;;;;;;4967554;28;20023;-78
2021/08/08 03:25:16;;;;;;;6.70;4.10;;;20.10;93.70;;;;;;4952676;28;20071;-79
2021/08/08 03:27:42;;;;;;;5.63;3.75;;;20.20;93.30;;;;;;4952801;28;20452;-79
2021/08/08 03:30:08;;;;;;;5.35;4.07;;;20.20;93.70;;;;;;4968182;28;20031;-79
2021/08/08 03:32:35;;;;;;;6.07;3.88;;;20.20;97.40;;;;;;4969713;28;20066;-79
2021/08/08 03:35:02;;;;;;;5.60;3.90;;;20.20;99.90;;;;;;4954073;28;20046;-79
2021/08/08 03:37:27;;;;;;;4.93;3.80;;;20.30;99.90;;;;;;4966367;28;20050;-79
2021/08/08 03:39:53;;;;;;;4.70;4.22;;;20.30;99.90;;;;;;4967187;28;20393;-78
2021/08/08 03:42:19;;;;;;;5.03;4.07;;;20.30;99.90;;;;;;4970509;28;20034;-78
2021/08/08 03:44:44;;;;;;;4.53;3.90;;;20.30;99.90;;;;;;4970527;28;20059;-79
2021/08/08 03:47:10;;;;;;;7.05;3.70;;;20.20;99.90;;;;;;4969922;28;20113;-79
2021/08/08 03:49:36;;;;;;;5.60;3.58;;;20.20;99.90;;;;;;4971800;28;20084;-79
2021/08/08 03:52:01;;;;;;;4.75;4.25;;;20.20;99.90;;;;;;4968769;28;20023;-79
2021/08/08 03:54:27;;;;;;;5.68;4.13;;;20.20;99.90;;;;;;4968302;28;20092;-79
2021/08/08 03:56:53;;;;;;;7.22;3.53;;;20.20;99.90;;;;;;4967849;28;20072;-78
2021/08/08 03:59:19;;;;;;;9.02;3.90;;;20.20;99.90;;;;;;4968903;28;20605;-79
2021/08/08 04:01:45;;;;;;;6.03;4.00;;;20.10;99.90;;;;;;4968096;28;20073;-78
2021/08/08 04:04:10;;;;;;;6.38;3.55;;;20.20;99.90;;;;;;4968324;28;20023;-79
2021/08/08 04:06:36;;;;;;;7.43;3.85;;;20.10;99.90;;;;;;4968438;28;20088;-79
2021/08/08 04:09:02;;;;;;;4.78;3.30;;;20.00;99.90;;;;;;4969919;28;20025;-79
2021/08/08 04:11:27;;;;;;;7.32;3.53;;;20.00;99.90;;;;;;4956973;28;20034;-78
2021/08/08 04:13:53;;;;;;;8.20;3.53;;;20.00;99.90;;;;;;4953145;28;20027;-79
2021/08/08 04:16:19;;;;;;;3.58;2.70;;;20.00;99.90;;;;;;4966681;28;20023;-79
2021/08/08 04:18:45;;;;;;;4.50;2.80;;;19.90;99.90;;;;;;4952128;28;20082;-79
2021/08/08 04:21:10;;;;;;;2.00;1.80;;;19.80;99.90;;;;;;4952042;28;20039;-79
2021/08/08 04:23:37;;;;;;;3.10;2.08;;;19.70;99.90;;;;;;4952028;28;20028;-79
2021/08/08 04:26:02;;;;;;;1.52;1.20;;;19.50;99.90;;;;;;4951908;28;20042;-78
2021/08/08 04:28:28;;;;;;;1.10;1.00;;;19.30;99.90;;;;;;4950632;28;20024;-79
2021/08/08 04:30:54;;;;;;;5.70;1.17;;;19.10;99.90;;;;;;4952042;28;20015;-79
2021/08/08 04:33:19;;;;;;;1.65;1.10;;;19.00;99.90;;;;;;4967127;28;20031;-79
2021/08/08 04:35:45;;;;;;;1.35;1.23;;;18.90;99.90;;;;;;4971247;28;20031;-78
2021/08/08 04:38:10;;;;;;;1.95;1.48;;;18.70;99.90;;;;;;4952944;28;20023;-78
2021/08/08 04:40:36;;;;;;;3.00;1.40;;;18.60;99.90;;;;;;4956043;28;20131;-78
2021/08/08 04:43:04;;;;;;;4.68;2.28;;;18.60;99.90;;;;;;4969641;28;20023;-79
2021/08/08 04:45:30;;;;;;;2.28;1.40;;;18.50;99.90;;;;;;4971065;28;20035;-78
2021/08/08 04:47:56;;;;;;;2.00;1.42;;;18.50;99.90;;;;;;4969824;28;20026;-80
2021/08/08 04:50:21;;;;;;;4.30;2.10;;;18.50;99.90;;;;;;4973013;28;20110;-81
2021/08/08 04:52:48;;;;;;;2.83;1.50;;;18.60;99.90;;;;;;4973101;28;20468;-79
2021/08/08 04:55:15;;;;;;;2.95;1.33;;;18.60;99.90;;;;;;4972972;28;20388;-79
2021/08/08 04:57:41;;;;;;;2.03;1.45;;;18.60;99.90;;;;;;4972950;28;20027;-79
2021/08/08 05:00:08;;;;;;;3.35;1.60;;;18.50;99.90;;;;;;4973000;28;20042;-79
2021/08/08 05:02:34;;;;;;;2.38;0.93;;;18.50;99.90;;;;;;4972411;28;20041;-79
2021/08/08 05:05:05;;;;;;;2.45;1.83;;;18.40;99.90;;;;;;4973701;28;20042;-78
2021/08/08 05:07:38;;;;;;;3.47;1.90;;;18.40;99.90;;;;;;4969966;28;20062;-78
2021/08/08 05:10:08;;;;;;;3.70;2.17;;;18.30;99.90;;;;;;4971433;28;20366;-79
2021/08/08 05:12:34;;;;;;;3.08;2.47;;;18.20;99.90;;;;;;4954723;28;20114;-79
2021/08/08 05:15:00;;;;;;;2.22;2.03;;;18.20;99.90;;;;;;4969506;28;20135;-78
2021/08/08 05:17:25;;;;;;;3.45;2.25;;;18.10;99.90;;;;;;4954524;28;20050;-79
2021/08/08 05:19:51;;;;;;;4.93;2.40;;;18.10;99.90;;;;;;4976830;28;20027;-79
2021/08/08 05:22:16;;;;;;;5.07;2.40;;;18.10;99.90;;;;;;4972360;28;20030;-78
2021/08/08 05:24:42;;;;;;;5.63;2.50;;;18.10;99.90;;;;;;4971108;28;20469;-78
2021/08/08 05:27:08;;;;;;;4.85;3.08;;;18.00;99.90;;;;;;4972382;28;20110;-78
2021/08/08 05:29:33;;;;;;;5.05;2.53;;;18.00;99.90;;;;;;4971100;28;20037;-78
2021/08/08 05:31:59;;;;;;;3.75;1.90;;;17.80;99.90;;;;;;4972046;28;20084;-78
2021/08/08 05:34:24;;;;;;;2.05;1.88;;;17.80;99.90;;;;;;4973091;28;20039;-79
2021/08/08 05:36:50;;;;;;;2.85;2.17;;;17.70;99.90;;;;;;4973272;28;20023;-78
2021/08/08 05:39:16;;;;;;;5.53;2.50;;;17.70;99.90;;;;;;4972468;28;20035;-78
2021/08/08 05:41:41;;;;;;;4.60;2.50;;;17.70;99.90;;;;;;4958386;28;20400;-78
2021/08/08 05:44:07;;;;;;;5.95;2.88;;;17.70;99.90;;;;;;4969098;28;20031;-78
2021/08/08 05:46:33;;;;;;;4.63;2.78;;;17.70;99.90;;;;;;4952925;28;20122;-79
2021/08/08 05:48:58;;;;;;;5.40;3.25;;;17.60;99.90;;;;;;4971466;28;20476;-78
2021/08/08 05:51:24;;;;;;;4.20;3.20;;;17.60;99.90;;;;;;4954675;28;20039;-78
2021/08/08 05:53:49;;;;;;;4.60;3.40;;;17.60;99.90;;;;;;4968402;28;20016;-79
2021/08/08 05:56:15;;;;;;;4.07;3.00;;;17.50;99.90;;;;;;4968852;28;20031;-78
2021/08/08 05:58:41;;;;;;;3.13;2.83;;;17.50;99.90;;;;;;4971789;28;20396;-78
2021/08/08 06:01:06;;;;;;;5.20;3.28;;;17.40;99.90;;;;;;4986106;28;20109;-78
2021/08/08 06:03:32;;;;;;;5.10;2.80;;;17.40;99.90;;;;;;4983101;28;20042;-78
2021/08/08 06:05:57;;;;;;;7.15;2.70;;;17.40;99.90;;;;;;4973231;28;20054;-79
2021/08/08 06:08:23;;;;;;;5.05;2.83;;;17.40;99.90;;;;;;4987621;28;20030;-78
2021/08/08 06:10:49;;;;;;;4.82;2.80;;;17.40;99.90;;;;;;4972923;28;20042;-79
2021/08/08 06:13:15;;;;;;;5.68;3.15;;;17.30;99.90;;;;;;4972656;28;20026;-78
2021/08/08 06:15:41;;;;;;;6.20;2.60;;;17.40;99.90;;;;;;4971414;28;20045;-78
2021/08/08 06:18:06;;;;;;;4.50;2.40;;;17.40;99.90;;;;;;4972351;28;20080;-79
2021/08/08 06:20:32;;;;;;;4.20;2.47;;;17.40;99.90;;;;;;4971619;28;20077;-79
2021/08/08 06:22:58;;;;;;;3.80;3.10;;;17.40;99.90;;;;;;4971499;28;20042;-79
2021/08/08 06:25:23;;;;;;;7.65;3.30;;;17.50;99.90;;;;;;4970867;28;20121;-79
2021/08/08 06:27:49;;;;;;;6.70;3.58;;;17.50;99.90;;;;;;4971070;28;20115;-78
2021/08/08 06:30:14;;;;;;;3.40;2.78;;;17.50;99.90;;;;;;4971669;28;20031;-79
2021/08/08 06:32:40;;;;;;;5.10;3.35;;;17.60;99.90;;;;;;4969230;28;20031;-78
2021/08/08 06:35:06;;;;;;;3.67;3.10;;;17.60;99.90;;;;;;4968139;28;20023;-78
2021/08/08 06:37:32;;;;;;;6.28;3.33;;;17.60;99.90;;;;;;4968491;28;20472;-79
2021/08/08 06:39:58;;;;;;;3.40;3.10;;;17.70;99.90;;;;;;4969171;28;20042;-78
2021/08/08 06:42:24;;;;;;;3.28;2.45;;;17.80;99.90;;;;;;4968418;28;20023;-78
2021/08/08 06:44:50;;;;;;;2.70;2.00;;;17.80;99.90;;;;;;4984093;28;20296;-79
2021/08/08 06:47:16;;;;;;;2.47;2.00;;;17.90;99.90;;;;;;4968847;28;20576;-79
2021/08/08 06:49:41;;;;;;;3.60;2.05;;;17.90;99.90;;;;;;4984873;28;20015;-79
2021/08/08 06:52:07;;;;;;;1.83;1.73;;;17.90;99.90;;;;;;4972468;28;20122;-78
2021/08/08 06:54:33;;;;;;;2.45;1.67;;;17.90;99.90;;;;;;4958612;28;20023;-79
2021/08/08 06:56:58;;;;;;;2.30;2.10;;;17.80;99.90;;;;;;4968093;28;20023;-79
2021/08/08 06:59:29;;;;;;;1.85;1.75;;;17.80;99.90;;;;;;4953174;28;20019;-80
2021/08/08 07:01:55;;;;;;;2.60;1.67;;;17.70;99.90;;;;;;4951945;28;20023;-79
2021/08/08 07:04:21;;;;;;;2.40;2.20;;;17.60;99.90;;;;;;4953161;28;20034;-79
2021/08/08 07:06:47;;;;;;;1.67;1.58;;;17.50;99.90;;;;;;4952963;28;20035;-79
2021/08/08 07:09:12;;;;;;;1.63;1.50;;;17.40;99.90;;;;;;4968142;28;20076;-80
2021/08/08 07:11:38;;;;;;;2.50;1.98;;;17.40;99.90;;;;;;4970387;28;20038;-78
2021/08/08 07:14:04;;;;;;;1.52;1.42;;;17.40;99.90;;;;;;4971018;28;20031;-78
2021/08/08 07:16:29;;;;;;;2.17;1.60;;;17.40;99.90;;;;;;4972222;28;20497;-79
2021/08/08 07:18:55;;;;;;;1.40;1.30;;;17.40;99.90;;;;;;4970889;28;20042;-77
2021/08/08 07:21:21;;;;;;;2.92;1.90;;;17.40;99.90;;;;;;4972147;28;20022;-79
2021/08/08 07:23:46;;;;;;;1.40;1.30;;;17.50;99.90;;;;;;4971229;28;20096;-79
2021/08/08 07:26:12;;;;;;;2.33;1.38;;;17.60;99.90;;;;;;4971062;28;20510;-80
2021/08/08 07:28:38;;;;;;;2.25;1.40;;;17.70;99.90;;;;;;4970659;28;20030;-81
2021/08/08 07:31:03;;;;;;;2.88;1.58;;;17.80;99.90;;;;;;4970114;28;20117;-81
2021/08/08 07:33:29;;;;;;;2.80;1.33;;;17.90;99.90;;;;;;4967015;28;20030;-81
2021/08/08 07:35:55;;;;;;;1.83;1.73;;;18.00;99.90;;;;;;4985385;28;20019;-81
2021/08/08 07:38:20;;;;;;;3.08;1.40;;;18.10;99.90;;;;;;4969680;28;20023;-79
2021/08/08 07:40:46;;;;;;;1.73;1.40;;;18.20;99.90;;;;;;4985329;28;20026;-79
2021/08/08 07:43:12;;;;;;;1.45;1.13;;;18.30;99.90;;;;;;4970354;28;20484;-79
2021/08/08 07:45:38;;;;;;;1.55;1.45;;;18.40;99.90;;;;;;4986705;28;20501;-79
2021/08/08 07:48:04;;;;;;;1.80;1.50;;;18.60;99.90;;;;;;4971609;28;20027;-79
2021/08/08 07:50:29;;;;;;;3.72;1.60;;;18.60;99.90;;;;;;4957912;28;20429;-78
2021/08/08 07:52:55;;;;;;;3.20;1.83;;;18.50;99.90;;;;;;4952393;28;20058;-78
2021/08/08 07:55:23;;;;;;;1.50;1.30;;;18.60;99.90;;;;;;4952302;28;20473;-78
2021/08/08 07:57:48;;;;;;;2.25;1.55;;;18.70;99.90;;;;;;4967031;28;20039;-78
2021/08/08 08:00:14;;;;;;;1.58;1.48;;;18.80;99.90;;;;;;4976531;28;20400;-78
2021/08/08 08:02:40;;;;;;;2.53;1.77;;;19.00;99.90;;;;;;4985889;28;20358;-78
2021/08/08 08:05:06;;;;;;;1.80;1.60;;;19.00;99.90;;;;;;4970001;28;20117;-78
2021/08/08 08:07:31;;;;;;;2.58;1.63;;;19.00;99.90;;;;;;4970010;28;20031;-78
2021/08/08 08:09:57;;;;;;;1.80;1.70;;;19.10;99.90;;;;;;4971498;28;20027;-78
2021/08/08 08:12:23;;;;;;;1.50;1.40;;;19.10;99.90;;;;;;4971195;28;20461;-78
2021/08/08 08:14:48;;;;;;;2.15;2.03;;;19.20;99.90;;;;;;4969858;28;20035;-78
2021/08/08 08:17:14;;;;;;;2.05;1.52;;;19.00;99.90;;;;;;4970506;28;20034;-78
2021/08/08 08:19:40;;;;;;;1.98;1.52;;;19.20;99.90;;;;;;4955541;28;20031;-78
2021/08/08 08:22:05;;;;;;;2.50;1.77;;;19.30;99.90;;;;;;4983755;28;20366;-78
2021/08/08 08:24:31;;;;;;;1.95;1.50;;;19.50;99.90;;;;;;4969266;28;20034;-79
2021/08/08 08:26:56;;;;;;;2.60;2.40;;;19.50;99.90;;;;;;4968532;28;20125;-78
2021/08/08 08:29:22;;;;;;;2.20;1.83;;;19.40;99.90;;;;;;4981787;28;20534;-78
2021/08/08 08:31:48;;;;;;;1.98;1.75;;;19.30;99.90;;;;;;4968181;28;20080;-78
2021/08/08 08:34:13;;;;;;;3.80;1.90;;;19.30;99.90;;;;;;4967944;28;20098;-78
2021/08/08 08:36:39;;;;;;;1.65;1.55;;;19.30;99.90;;;;;;4969793;28;20392;-78
2021/08/08 08:39:05;;;;;;;2.45;2.25;;;19.20;99.90;;;;;;4969695;28;20038;-78
2021/08/08 08:41:32;;;;;;;2.63;1.92;;;19.20;99.90;;;;;;4985157;28;20404;-78
2021/08/08 08:43:59;;;;;;;2.10;2.00;;;19.20;99.90;;;;;;4969684;28;20084;-79
2021/08/08 08:46:25;;;;;;;2.95;1.70;;;19.30;99.90;;;;;;4969615;28;20039;-79
2021/08/08 08:48:55;;;;;;;1.88;1.70;;;19.10;99.90;;;;;;4956412;28;20080;-78
2021/08/08 08:51:41;;;;;;;1.75;1.50;;;19.20;99.90;;;;;;4951579;28;20030;-78
2021/08/08 08:54:07;;;;;;;1.90;1.80;;;19.20;99.90;;;;;;4950396;28;20024;-79
2021/08/08 08:56:33;;;;;;;1.80;1.70;;;19.60;99.90;;;;;;4951660;28;20032;-78
2021/08/08 08:59:00;;;;;;;1.65;1.55;;;19.70;99.90;;;;;;4951454;28;20102;-79
2021/08/08 09:01:26;;;;;;;2.05;1.95;;;19.90;99.90;;;;;;4971429;28;20055;-79
2021/08/08 09:03:52;;;;;;;2.38;2.17;;;19.90;99.90;;;;;;4966700;28;20054;-79
2021/08/08 09:06:17;;;;;;;1.85;1.75;;;20.00;99.90;;;;;;4969226;28;20117;-79
2021/08/08 09:08:43;;;;;;;1.58;1.48;;;20.50;99.90;;;;;;4970205;28;20073;-79
2021/08/08 09:11:10;;;;;;;1.85;1.73;;;20.70;99.80;;;;;;4969916;28;20564;-79
2021/08/08 09:13:56;;;;;;;1.90;1.80;;;21.00;96.80;;;;;;4968743;28;20026;-79
2021/08/08 09:16:26;;;;;;;1.58;1.17;;;21.30;96.50;;;;;;4969925;28;20105;-79
2021/08/08 09:18:54;;;;;;;1.70;1.35;;;21.60;90.40;;;;;;4972180;28;20023;-79
2021/08/08 09:21:21;;;;;;;1.75;1.63;;;21.90;93.00;;;;;;4969464;28;20129;-78
2021/08/08 09:23:55;;;;;;;2.13;1.50;;;22.10;86.60;;;;;;4968795;28;20499;-79
2021/08/08 09:26:31;;;;;;;1.50;1.40;;;22.20;83.70;;;;;;4967414;28;20510;-79
2021/08/08 09:29:09;;;;;;;2.03;1.60;;;22.50;88.70;;;;;;4984910;28;20488;-79
2021/08/08 09:31:39;;;;;;;3.13;1.40;;;22.80;85.10;;;;;;4967985;28;20389;-79
2021/08/08 09:34:04;;;;;;;1.58;1.30;;;23.10;83.40;;;;;;4969380;28;20403;-79
2021/08/08 09:36:41;;;;;;;2.08;1.40;;;23.20;80.70;;;;;;4970078;28;20081;-79
2021/08/08 09:39:08;;;;;;;1.58;1.38;;;23.10;79.60;;;;;;4952484;28;20371;-79
2021/08/08 09:41:34;;;;;;;2.10;1.73;;;23.10;79.70;;;;;;4950775;28;20100;-79
2021/08/08 09:44:09;;;;;;;1.52;1.42;;;23.20;80.00;;;;;;4965283;28;20026;-79
2021/08/08 09:46:35;;;;;;;1.70;1.50;;;23.40;79.30;;;;;;4951584;28;20058;-79
2021/08/08 09:49:13;;;;;;;1.80;1.70;;;23.50;80.90;;;;;;4979707;28;20031;-79
2021/08/08 09:51:52;;;;;;;2.88;2.05;;;23.40;76.50;;;;;;4971490;28;20022;-79
2021/08/08 09:54:19;;;;;;;1.50;1.40;;;23.00;74.60;;;;;;4969905;28;20365;-79
2021/08/08 09:56:56;;;;;;;1.55;1.17;;;22.60;80.00;;;;;;4972107;28;20034;-79
2021/08/08 09:59:21;;;;;;;2.42;2.10;;;22.60;83.30;;;;;;4973065;28;20504;-79
2021/08/08 10:01:47;;;;;;;2.13;1.88;;;22.30;80.70;;;;;;4973356;28;20110;-79
2021/08/08 10:04:13;;;;;;;3.60;2.35;;;22.30;81.00;;;;;;4971719;28;20023;-79
2021/08/08 10:06:39;;;;;;;3.05;2.10;;;22.40;81.10;;;;;;4973060;28;20035;-79
2021/08/08 10:09:06;;;;;;;1.40;1.30;;;22.80;83.40;;;;;;4972939;28;20031;-79
2021/08/08 10:11:33;;;;;;;1.40;1.30;;;22.30;77.70;;;;;;4988126;28;20114;-79
2021/08/08 10:14:02;;;;;;;1.50;1.17;;;22.40;80.80;;;;;;4971915;28;20034;-79
2021/08/08 10:16:35;;;;;;;2.90;1.52;;;22.80;83.30;;;;;;4973099;28;20034;-79
2021/08/08 10:19:03;;;;;;;5.15;3.33;;;22.60;78.30;;;;;;4972293;28;20027;-78
2021/08/08 10:21:32;;;;;;;2.22;1.92;;;22.30;80.90;;;;;;4987955;28;20073;-79
2021/08/08 10:24:02;;;;;;;1.75;1.50;;;22.20;82.50;;;;;;4988187;28;20031;-79
2021/08/08 10:26:29;;;;;;;2.00;1.40;;;21.90;82.80;;;;;;4972759;28;20042;-79
2021/08/08 10:28:55;;;;;;;3.35;2.50;;;22.00;85.60;;;;;;4986394;28;20023;-79
2021/08/08 10:31:23;;;;;;;2.05;1.85;;;21.90;83.30;;;;;;4971554;28;20027;-79
2021/08/08 10:33:51;;;;;;;3.13;2.67;;;21.90;82.80;;;;;;4968279;28;20061;-79
2021/08/08 10:36:25;;;;;;;1.92;1.63;;;22.00;86.30;;;;;;4971540;28;20023;-79
2021/08/08 10:38:52;;;;;;;1.70;1.60;;;22.10;87.10;;;;;;4957395;28;20062;-79
2021/08/08 10:41:18;;;;;;;2.80;2.25;;;22.00;85.70;;;;;;4953415;28;20042;-79
2021/08/08 10:43:44;;;;;;;4.05;3.00;;;22.20;83.40;;;;;;4968300;28;20020;-79
2021/08/08 10:46:11;;;;;;;4.05;2.70;;;22.00;83.00;;;;;;4968206;28;20039;-79
2021/08/08 10:48:39;;;;;;;5.03;2.92;;;21.90;84.60;;;;;;4960242;28;20027;-79
2021/08/08 10:51:24;;;;;;;3.95;2.70;;;21.90;85.90;;;;;;4971312;28;20061;-79
2021/08/08 10:54:06;;;;;;;3.88;2.08;;;21.80;83.20;;;;;;4972572;28;20084;-79
2021/08/08 10:56:39;;;;;;;;;;;21.80;84.30;;;;;;4971750;28;20055;-79
2021/08/08 10:59:15;;;;;;;2.50;1.60;;;22.00;85.20;;;;;;4986810;28;19910;-79
2021/08/08 11:01:41;;;;;;;1.65;1.45;;;22.40;82.60;;;;;;4971264;28;20469;-79
2021/08/08 11:04:07;;;;;;;1.77;1.48;;;22.70;83.00;;;;;;4963602;28;20027;-79
2021/08/08 11:06:34;;;;;;;3.63;1.73;;;22.70;80.10;;;;;;4952894;28;20480;-79
2021/08/08 11:09:01;;;;;;;3.55;2.38;;;22.90;78.80;;;;;;4968438;28;20030;-79
2021/08/08 11:11:29;;;;;;;3.10;2.50;;;22.80;78.20;;;;;;4953162;28;20035;-79
2021/08/08 11:14:08;;;;;;;1.98;1.80;;;23.00;77.50;;;;;;4967835;28;20020;-79
2021/08/08 11:16:34;;;;;;;1.73;1.63;;;23.00;77.00;;;;;;4952680;28;20072;-79
2021/08/08 11:18:59;;;;;;;2.90;2.60;;;23.10;76.20;;;;;;4967630;28;20031;-79
2021/08/08 11:21:26;;;;;;;3.50;3.17;;;23.20;76.50;;;;;;4967624;28;20051;-79
2021/08/08 11:23:54;;;;;;;3.97;2.70;;;23.20;75.00;;;;;;4967716;28;20082;-79
2021/08/08 11:26:20;;;;;;;2.72;2.30;;;23.10;72.40;;;;;;4967422;28;20041;-79
2021/08/08 11:29:00;;;;;;;3.00;2.67;;;22.90;71.70;;;;;;4982198;28;20473;-79
2021/08/08 11:31:31;;;;;;;3.72;2.70;;;23.00;73.40;;;;;;4970780;28;20018;-79
2021/08/08 11:34:00;;;;;;;4.32;1.75;;;23.00;74.60;;;;;;4970474;28;20015;-79
2021/08/08 11:36:31;;;;;;;2.38;1.70;;;23.00;71.90;;;;;;4970678;28;20031;-79
2021/08/08 11:38:59;;;;;;;1.50;1.40;;;23.00;73.10;;;;;;4955466;28;20046;-79
2021/08/08 11:41:25;;;;;;;4.57;2.28;;;23.10;73.80;;;;;;4952615;28;20027;-79
2021/08/08 11:44:04;;;;;;;3.35;2.58;;;22.90;71.80;;;;;;4953236;28;20054;-79
2021/08/08 11:46:30;;;;;;;2.92;2.10;;;22.90;74.70;;;;;;4986452;28;20045;-79
2021/08/08 11:48:55;;;;;;;3.35;2.08;;;22.70;74.70;;;;;;4971795;28;20058;-79
2021/08/08 11:51:21;;;;;;;2.05;1.85;;;22.60;73.80;;;;;;4971366;28;20022;-79
2021/08/08 11:53:53;;;;;;;1.77;1.65;;;22.70;75.60;;;;;;4970503;28;20384;-79
2021/08/08 11:56:22;;;;;;;1.42;1.33;;;22.90;75.20;;;;;;4970307;28;20088;-79
2021/08/08 11:58:53;;;;;;;1.63;1.20;;;23.00;74.50;;;;;;4970270;28;20026;-79
2021/08/08 12:01:20;;;;;;;1.60;1.50;;;23.30;72.90;;;;;;4971586;28;20556;-79
2021/08/08 12:03:46;;;;;;;2.13;1.30;;;23.40;71.00;;;;;;4985936;28;20023;-79
2021/08/08 12:06:13;;;;;;;2.90;0.88;;;23.60;73.10;;;;;;4967647;28;20053;-80
2021/08/08 12:08:39;;;;;;;1.67;1.45;;;23.90;69.10;;;;;;4969601;28;20030;-80
2021/08/08 12:11:05;;;;;;;1.60;1.50;;;24.30;73.50;;;;;;4970162;28;20023;-79
2021/08/08 12:13:30;;;;;;;1.27;1.27;;;24.30;67.00;;;;;;4970188;28;20026;-79
2021/08/08 12:15:56;;;;;;;2.30;1.13;;;24.50;63.80;;;;;;4970277;28;20019;-79
2021/08/08 12:18:29;;;;;;;1.10;1.10;;;24.30;64.30;;;;;;4970065;28;20114;-79
2021/08/08 12:20:55;;;;;;;1.45;1.30;;;24.00;61.50;;;;;;4969680;28;20042;-79
2021/08/08 12:23:24;;;;;;;2.20;1.25;;;23.90;62.70;;;;;;4985855;28;20481;-79
2021/08/08 12:26:01;;;;;;;1.40;1.30;;;23.90;65.90;;;;;;4971262;28;20050;-79
2021/08/08 12:28:27;;;;;;;1.50;1.40;;;23.90;66.50;;;;;;4970238;28;20156;-79
2021/08/08 12:31:11;;;;;;;1.50;1.40;;;24.00;67.70;;;;;;4970166;28;20033;-79
2021/08/08 12:33:38;;;;;;;2.15;1.90;;;24.10;67.70;;;;;;4970558;28;20469;-79
2021/08/08 12:36:12;;;;;;;1.65;1.55;;;24.00;64.30;;;;;;4952149;28;20055;-79
2021/08/08 12:38:52;;;;;;;2.95;2.65;;;24.20;64.90;;;;;;4963587;28;20523;-79
2021/08/08 12:41:37;;;;;;;7.22;2.85;;;24.40;66.50;;;;;;4985951;28;20573;-79
2021/08/08 12:44:03;;;;;;;2.85;2.50;;;24.60;62.80;;;;;;4969020;28;20072;-79
2021/08/08 12:46:37;;;;;;;2.95;2.20;;;24.80;63.90;;;;;;4969658;28;20431;-79
2021/08/08 12:49:12;;;;;;;3.55;2.53;;;24.70;60.90;;;;;;4970293;28;20019;-79